Time;durP1;ratioP1;P1;durP2;ratioP2;P2;SDS_P1;SDS_P2;PMS_P1;PMS_P2;Temp;Humidity;BMP_temperature;BMP_pressure;BME280_temperature;BME280_humidity;BME280_pressure;Samples;Min_cycle;Max_cycle;Signal;HPM_P1;HPM_P2
2021/12/11 15:42:31;;;;;;;0;0;;;;;;;0;0;0;;;;
2021/12/11 15:43:33;;;;;;;0;0;;;;;;;0;0;0;;;;
2021/12/11 15:44:41;;;;;;;0;0;;;;;;;0;0;0;;;;
2021/12/11 15:45:48;;;;;;;0;0;;;;;;;0;0;0;;;;
2021/12/11 15:46:52;;;;;;;0;0;;;;;;;0;0;0;;;;
2021/12/11 15:47:54;;;;;;;0;0;;;;;;;0;0;0;;;;
2021/12/11 15:48:55;;;;;;;0;0;;;;;;;0;0;0;;;;
2021/12/11 15:49:57;;;;;;;0;0;;;;;;;0;0;0;;;;
2021/12/11 15:50:58;;;;;;;0;0;;;;;;;0;0;0;;;;
2021/12/11 15:51:59;;;;;;;0;0;;;;;;;0;0;0;;;;
2021/12/11 15:52:59;;;;;;;0;0;;;;;;;0;0;0;;;;
2021/12/11 15:54:01;;;;;;;0;0;;;;;;;0;0;0;;;;
2021/12/11 15:55:03;;;;;;;0;0;;;;;;;0;0;0;;;;
2021/12/11 15:56:08;;;;;;;0;0;;;;;;;0;0;0;;;;
2021/12/11 15:57:10;;;;;;;0;0;;;;;;;0;0;0;;;;
2021/12/11 15:58:12;;;;;;;0;0;;;;;;;0;0;0;;;;
2021/12/11 15:59:13;;;;;;;0;0;;;;;;;0;0;0;;;;
2021/12/11 16:00:14;;;;;;;0;0;;;;;;;0;0;0;;;;
2021/12/11 16:01:23;;;;;;;0;0;;;;;;;0;0;0;;;;
2021/12/11 16:02:26;;;;;;;0;0;;;;;;;0;0;0;;;;
2021/12/11 16:03:28;;;;;;;0;0;;;;;;;0;0;0;;;;
2021/12/11 16:04:29;;;;;;;0;0;;;;;;;0;0;0;;;;
2021/12/11 16:05:30;;;;;;;0;0;;;;;;;0;0;0;;;;
2021/12/11 16:06:31;;;;;;;0;0;;;;;;;0;0;0;;;;
2021/12/11 16:07:33;;;;;;;0;0;;;;;;;0;0;0;;;;
2021/12/11 16:08:35;;;;;;;0;0;;;;;;;0;0;0;;;;
2021/12/11 16:09:37;;;;;;;0;0;;;;;;;0;0;0;;;;
2021/12/11 16:10:40;;;;;;;0;0;;;;;;;0;0;0;;;;
2021/12/11 16:11:42;;;;;;;0;0;;;;;;;0;0;0;;;;
2021/12/11 16:12:45;;;;;;;0;0;;;;;;;0;0;0;;;;
2021/12/11 16:13:48;;;;;;;0;0;;;;;;;0;0;0;;;;
2021/12/11 16:14:49;;;;;;;0;0;;;;;;;0;0;0;;;;
2021/12/11 16:15:51;;;;;;;0;0;;;;;;;0;0;0;;;;
2021/12/11 16:16:52;;;;;;;2.1;1.8;;;;;;;19.33;45.99219;95515.97;;;;
2021/12/11 16:17:58;;;;;;;2.1;1.8;;;;;;;19.33;45.99219;95515.97;;;;
2021/12/11 16:18:59;;;;;;;2.1;1.8;;;;;;;19.33;45.99219;95515.97;;;;
2021/12/11 16:20:02;;;;;;;2.1;1.8;;;;;;;19.33;45.99219;95515.97;;;;
2021/12/11 16:21:06;;;;;;;2.1;1.8;;;;;;;19.33;45.99219;95515.97;;;;
2021/12/11 16:22:12;;;;;;;2.1;1.8;;;;;;;19.33;45.99219;95515.97;;;;
2021/12/11 16:23:17;;;;;;;2.1;1.8;;;;;;;19.33;45.99219;95515.97;;;;
2021/12/11 16:24:22;;;;;;;2.1;1.8;;;;;;;19.33;45.99219;95515.97;;;;
2021/12/11 16:25:23;;;;;;;2.1;1.8;;;;;;;19.33;45.99219;95515.97;;;;
2021/12/11 16:26:27;;;;;;;2.1;1.8;;;;;;;19.33;45.99219;95515.97;;;;
2021/12/11 16:27:30;;;;;;;2.1;1.8;;;;;;;19.33;45.99219;95515.97;;;;
2021/12/11 16:28:32;;;;;;;2.1;1.9;;;;;;;19.5;46.3418;95535.16;;;;
2021/12/11 16:29:32;;;;;;;2.1;1.9;;;;;;;19.5;46.3418;95535.16;;;;
2021/12/11 16:30:34;;;;;;;2.1;1.9;;;;;;;19.5;46.3418;95535.16;;;;
2021/12/11 16:31:37;;;;;;;2.1;1.9;;;;;;;19.5;46.3418;95535.16;;;;
2021/12/11 16:32:39;;;;;;;2.1;1.9;;;;;;;19.5;46.3418;95535.16;;;;
2021/12/11 16:33:40;;;;;;;2.1;1.9;;;;;;;19.5;46.3418;95535.16;;;;
2021/12/11 16:34:41;;;;;;;2.1;1.9;;;;;;;19.5;46.3418;95535.16;;;;
2021/12/11 16:35:45;;;;;;;2.1;1.9;;;;;;;19.5;46.3418;95535.16;;;;
2021/12/11 16:36:47;;;;;;;2.1;1.9;;;;;;;19.5;46.3418;95535.16;;;;
2021/12/11 16:37:50;;;;;;;2.1;1.9;;;;;;;19.5;46.3418;95535.16;;;;
2021/12/11 16:38:52;;;;;;;2.25;2;;;;;;;19.63;45.64941;95537.23;;;;
2021/12/11 16:39:55;;;;;;;2.25;2;;;;;;;19.63;45.64941;95537.23;;;;
2021/12/11 16:40:56;;;;;;;2.25;2;;;;;;;19.63;45.64941;95537.23;;;;
2021/12/11 16:42:15;;;;;;;2.25;2;;;;;;;19.63;45.64941;95537.23;;;;
2021/12/11 16:43:42;;;;;;;2.25;2;;;;;;;19.63;45.64941;95537.23;;;;
2021/12/11 16:44:43;;;;;;;2.25;2;;;;;;;19.63;45.64941;95537.23;;;;
2021/12/11 16:45:44;;;;;;;2.25;2;;;;;;;19.63;45.64941;95537.23;;;;
2021/12/11 16:46:47;;;;;;;2.25;2;;;;;;;19.63;45.64941;95537.23;;;;
2021/12/11 16:47:52;;;;;;;2.25;2;;;;;;;19.63;45.64941;95537.23;;;;
2021/12/11 16:48:52;;;;;;;2.25;2;;;;;;;19.63;45.64941;95537.23;;;;
2021/12/11 16:49:54;;;;;;;2.25;2.05;;;;;;;19.63;44.6582;95559.97;;;;
2021/12/11 16:50:55;;;;;;;2.25;2.05;;;;;;;19.63;44.6582;95559.97;;;;
2021/12/11 16:51:58;;;;;;;2.25;2.05;;;;;;;19.63;44.6582;95559.97;;;;
2021/12/11 16:53:02;;;;;;;2.25;2.05;;;;;;;19.63;44.6582;95559.97;;;;
2021/12/11 16:54:03;;;;;;;2.25;2.05;;;;;;;19.63;44.6582;95559.97;;;;
2021/12/11 16:55:06;;;;;;;2.25;2.05;;;;;;;19.63;44.6582;95559.97;;;;
2021/12/11 16:56:08;;;;;;;2.25;2.05;;;;;;;19.63;44.6582;95559.97;;;;
2021/12/11 16:57:09;;;;;;;2.25;2.05;;;;;;;19.63;44.6582;95559.97;;;;
2021/12/11 16:58:11;;;;;;;2.25;2.05;;;;;;;19.63;44.6582;95559.97;;;;
2021/12/11 16:59:12;;;;;;;2.25;2.05;;;;;;;19.63;44.6582;95559.97;;;;
2021/12/11 17:00:14;;;;;;;2.25;2.05;;;;;;;19.63;44.6582;95559.97;;;;
2021/12/11 17:01:18;;;;;;;2.1;2;;;;;;;19.68;44.60742;95581.05;;;;
2021/12/11 17:02:22;;;;;;;2.1;2;;;;;;;19.68;44.60742;95581.05;;;;
2021/12/11 17:03:25;;;;;;;2.1;2;;;;;;;19.68;44.60742;95581.05;;;;
2021/12/11 17:04:26;;;;;;;2.1;2;;;;;;;19.68;44.60742;95581.05;;;;
2021/12/11 17:05:28;;;;;;;2.1;2;;;;;;;19.68;44.60742;95581.05;;;;
2021/12/11 17:06:30;;;;;;;2.1;2;;;;;;;19.68;44.60742;95581.05;;;;
2021/12/11 17:07:35;;;;;;;2.1;2;;;;;;;19.68;44.60742;95581.05;;;;
2021/12/11 17:08:36;;;;;;;2.1;2;;;;;;;19.68;44.60742;95581.05;;;;
2021/12/11 17:09:38;;;;;;;2.1;2;;;;;;;19.68;44.60742;95581.05;;;;
2021/12/11 17:10:43;;;;;;;2.1;2;;;;;;;19.68;44.60742;95581.05;;;;
2021/12/11 17:11:47;;;;;;;2.3;2.1;;;;;;;19.63;44.06348;95596.55;;;;
2021/12/11 17:12:48;;;;;;;2.3;2.1;;;;;;;19.63;44.06348;95596.55;;;;
2021/12/11 17:13:49;;;;;;;2.3;2.1;;;;;;;19.63;44.06348;95596.55;;;;
2021/12/11 17:14:51;;;;;;;2.3;2.1;;;;;;;19.63;44.06348;95596.55;;;;
2021/12/11 17:15:54;;;;;;;2.3;2.1;;;;;;;19.63;44.06348;95596.55;;;;
2021/12/11 17:16:56;;;;;;;2.3;2.1;;;;;;;19.63;44.06348;95596.55;;;;
2021/12/11 17:17:57;;;;;;;2.3;2.1;;;;;;;19.63;44.06348;95596.55;;;;
2021/12/11 17:18:58;;;;;;;2.3;2.1;;;;;;;19.63;44.06348;95596.55;;;;
2021/12/11 17:19:59;;;;;;;2.3;2.1;;;;;;;19.63;44.06348;95596.55;;;;
2021/12/11 17:21:01;;;;;;;2.3;2.1;;;;;;;19.63;44.06348;95596.55;;;;
2021/12/11 17:22:06;;;;;;;2.3;2.1;;;;;;;19.63;44.06348;95596.55;;;;
2021/12/11 17:23:07;;;;;;;2.45;2.25;;;;;;;19.66;44.06641;95606.38;;;;
2021/12/11 17:24:09;;;;;;;2.45;2.25;;;;;;;19.66;44.06641;95606.38;;;;
2021/12/11 17:25:12;;;;;;;2.45;2.25;;;;;;;19.66;44.06641;95606.38;;;;
2021/12/11 17:26:18;;;;;;;2.45;2.25;;;;;;;19.66;44.06641;95606.38;;;;
2021/12/11 17:27:19;;;;;;;2.45;2.25;;;;;;;19.66;44.06641;95606.38;;;;
2021/12/11 17:28:22;;;;;;;2.45;2.25;;;;;;;19.66;44.06641;95606.38;;;;
2021/12/11 17:29:26;;;;;;;2.45;2.25;;;;;;;19.66;44.06641;95606.38;;;;
2021/12/11 17:30:30;;;;;;;2.45;2.25;;;;;;;19.66;44.06641;95606.38;;;;
2021/12/11 17:31:31;;;;;;;2.45;2.25;;;;;;;19.66;44.06641;95606.38;;;;
2021/12/11 17:32:31;;;;;;;2.45;2.25;;;;;;;19.66;44.06641;95606.38;;;;
2021/12/11 17:33:32;;;;;;;2.35;1.95;;;;;;;19.68;43.2627;95631.17;;;;
2021/12/11 17:34:33;;;;;;;2.35;1.95;;;;;;;19.68;43.2627;95631.17;;;;
2021/12/11 17:35:34;;;;;;;2.35;1.95;;;;;;;19.68;43.2627;95631.17;;;;
2021/12/11 17:36:36;;;;;;;2.35;1.95;;;;;;;19.68;43.2627;95631.17;;;;
2021/12/11 17:37:36;;;;;;;2.35;1.95;;;;;;;19.68;43.2627;95631.17;;;;
2021/12/11 17:38:38;;;;;;;2.35;1.95;;;;;;;19.68;43.2627;95631.17;;;;
2021/12/11 17:39:39;;;;;;;2.35;1.95;;;;;;;19.68;43.2627;95631.17;;;;
2021/12/11 17:40:40;;;;;;;2.35;1.95;;;;;;;19.68;43.2627;95631.17;;;;
2021/12/11 17:41:42;;;;;;;2.35;1.95;;;;;;;19.68;43.2627;95631.17;;;;
2021/12/11 17:42:43;;;;;;;2.35;1.95;;;;;;;19.68;43.2627;95631.17;;;;
2021/12/11 17:43:44;;;;;;;2.35;1.95;;;;;;;19.68;43.2627;95631.17;;;;
2021/12/11 17:44:45;;;;;;;3.3;2.1;;;;;;;19.78;43.17285;95644.41;;;;
2021/12/11 17:45:45;;;;;;;3.3;2.1;;;;;;;19.78;43.17285;95644.41;;;;
2021/12/11 17:46:47;;;;;;;3.3;2.1;;;;;;;19.78;43.17285;95644.41;;;;
2021/12/11 17:47:48;;;;;;;3.3;2.1;;;;;;;19.78;43.17285;95644.41;;;;
2021/12/11 17:48:50;;;;;;;3.3;2.1;;;;;;;19.78;43.17285;95644.41;;;;
2021/12/11 17:49:54;;;;;;;3.3;2.1;;;;;;;19.78;43.17285;95644.41;;;;
2021/12/11 17:50:54;;;;;;;3.3;2.1;;;;;;;19.78;43.17285;95644.41;;;;
2021/12/11 17:51:58;;;;;;;3.3;2.1;;;;;;;19.78;43.17285;95644.41;;;;
2021/12/11 17:53:00;;;;;;;3.3;2.1;;;;;;;19.78;43.17285;95644.41;;;;
2021/12/11 17:54:01;;;;;;;3.3;2.1;;;;;;;19.78;43.17285;95644.41;;;;
2021/12/11 17:55:03;;;;;;;3.3;2.1;;;;;;;19.78;43.17285;95644.41;;;;
2021/12/11 17:56:08;;;;;;;2.85;2.15;;;;;;;19.83;43.31055;95668.61;;;;
2021/12/11 17:57:11;;;;;;;2.85;2.15;;;;;;;19.83;43.31055;95668.61;;;;
2021/12/11 17:58:11;;;;;;;2.85;2.15;;;;;;;19.83;43.31055;95668.61;;;;
2021/12/11 17:59:14;;;;;;;2.85;2.15;;;;;;;19.83;43.31055;95668.61;;;;
2021/12/11 18:00:15;;;;;;;2.85;2.15;;;;;;;19.83;43.31055;95668.61;;;;
2021/12/11 18:01:22;;;;;;;2.85;2.15;;;;;;;19.83;43.31055;95668.61;;;;
2021/12/11 18:02:27;;;;;;;2.85;2.15;;;;;;;19.83;43.31055;95668.61;;;;
2021/12/11 18:03:28;;;;;;;2.85;2.15;;;;;;;19.83;43.31055;95668.61;;;;
2021/12/11 18:04:30;;;;;;;2.85;2.15;;;;;;;19.83;43.31055;95668.61;;;;
2021/12/11 18:05:35;;;;;;;2.85;2.15;;;;;;;19.83;43.31055;95668.61;;;;
2021/12/11 18:06:42;;;;;;;2.25;2.05;;;;;;;19.89;43.18359;95680.24;;;;
2021/12/11 18:07:53;;;;;;;2.25;2.05;;;;;;;19.89;43.18359;95680.24;;;;
2021/12/11 18:08:54;;;;;;;2.25;2.05;;;;;;;19.89;43.18359;95680.24;;;;
2021/12/11 18:09:57;;;;;;;2.25;2.05;;;;;;;19.89;43.18359;95680.24;;;;
2021/12/11 18:11:04;;;;;;;2.25;2.05;;;;;;;19.89;43.18359;95680.24;;;;
2021/12/11 18:12:08;;;;;;;2.25;2.05;;;;;;;19.89;43.18359;95680.24;;;;
2021/12/11 18:13:16;;;;;;;2.25;2.05;;;;;;;19.89;43.18359;95680.24;;;;
2021/12/11 18:14:21;;;;;;;2.25;2.05;;;;;;;19.89;43.18359;95680.24;;;;
2021/12/11 18:15:27;;;;;;;2.25;2.05;;;;;;;19.89;43.18359;95680.24;;;;
2021/12/11 18:16:32;;;;;;;2.25;2.05;;;;;;;19.89;43.18359;95680.24;;;;
2021/12/11 18:17:36;;;;;;;2.2;2;;;;;;;19.86;42.99414;95697.8;;;;
2021/12/11 18:18:42;;;;;;;2.2;2;;;;;;;19.86;42.99414;95697.8;;;;
2021/12/11 18:19:48;;;;;;;2.2;2;;;;;;;19.86;42.99414;95697.8;;;;
2021/12/11 18:20:56;;;;;;;2.2;2;;;;;;;19.86;42.99414;95697.8;;;;
2021/12/11 18:22:01;;;;;;;2.2;2;;;;;;;19.86;42.99414;95697.8;;;;
2021/12/11 18:23:05;;;;;;;2.2;2;;;;;;;19.86;42.99414;95697.8;;;;
2021/12/11 18:24:05;;;;;;;2.2;2;;;;;;;19.86;42.99414;95697.8;;;;
2021/12/11 18:25:07;;;;;;;2.2;2;;;;;;;19.86;42.99414;95697.8;;;;
2021/12/11 18:26:12;;;;;;;2.2;2;;;;;;;19.86;42.99414;95697.8;;;;
2021/12/11 18:27:17;;;;;;;2.2;2;;;;;;;19.86;42.99414;95697.8;;;;
2021/12/11 18:28:22;;;;;;;2.55;2.35;;;;;;;19.9;42.98633;95700.63;;;;
2021/12/11 18:29:23;;;;;;;2.55;2.35;;;;;;;19.9;42.98633;95700.63;;;;
2021/12/11 18:30:33;;;;;;;2.55;2.35;;;;;;;19.9;42.98633;95700.63;;;;
2021/12/11 18:31:37;;;;;;;2.55;2.35;;;;;;;19.9;42.98633;95700.63;;;;
2021/12/11 18:32:40;;;;;;;2.55;2.35;;;;;;;19.9;42.98633;95700.63;;;;
2021/12/11 18:33:41;;;;;;;2.55;2.35;;;;;;;19.9;42.98633;95700.63;;;;
2021/12/11 18:34:42;;;;;;;2.55;2.35;;;;;;;19.9;42.98633;95700.63;;;;
2021/12/11 18:35:46;;;;;;;2.55;2.35;;;;;;;19.9;42.98633;95700.63;;;;
2021/12/11 18:36:47;;;;;;;2.55;2.35;;;;;;;19.9;42.98633;95700.63;;;;
2021/12/11 18:37:53;;;;;;;2.55;2.35;;;;;;;19.9;42.98633;95700.63;;;;
2021/12/11 18:38:55;;;;;;;2.55;2.35;;;;;;;19.9;42.98633;95700.63;;;;
2021/12/11 18:39:57;;;;;;;2.1;1.9;;;;;;;19.88;43.10547;95706.95;;;;
2021/12/11 18:41:07;;;;;;;2.1;1.9;;;;;;;19.88;43.10547;95706.95;;;;
2021/12/11 18:42:11;;;;;;;2.1;1.9;;;;;;;19.88;43.10547;95706.95;;;;
2021/12/11 18:43:16;;;;;;;2.1;1.9;;;;;;;19.88;43.10547;95706.95;;;;
2021/12/11 18:44:19;;;;;;;2.1;1.9;;;;;;;19.88;43.10547;95706.95;;;;
2021/12/11 18:45:20;;;;;;;2.1;1.9;;;;;;;19.88;43.10547;95706.95;;;;
2021/12/11 18:46:24;;;;;;;2.1;1.9;;;;;;;19.88;43.10547;95706.95;;;;
2021/12/11 18:47:28;;;;;;;2.1;1.9;;;;;;;19.88;43.10547;95706.95;;;;
2021/12/11 18:48:29;;;;;;;2.1;1.9;;;;;;;19.88;43.10547;95706.95;;;;
2021/12/11 18:49:32;;;;;;;2.1;1.9;;;;;;;19.88;43.10547;95706.95;;;;
2021/12/11 18:50:34;;;;;;;2.95;2.2;;;;;;;19.91;42.9873;95717.36;;;;
2021/12/11 18:51:36;;;;;;;2.95;2.2;;;;;;;19.91;42.9873;95717.36;;;;
2021/12/11 18:52:43;;;;;;;2.95;2.2;;;;;;;19.91;42.9873;95717.36;;;;
2021/12/11 18:53:45;;;;;;;2.95;2.2;;;;;;;19.91;42.9873;95717.36;;;;
2021/12/11 18:54:50;;;;;;;2.95;2.2;;;;;;;19.91;42.9873;95717.36;;;;
2021/12/11 18:55:52;;;;;;;2.95;2.2;;;;;;;19.91;42.9873;95717.36;;;;
2021/12/11 18:56:56;;;;;;;2.95;2.2;;;;;;;19.91;42.9873;95717.36;;;;
2021/12/11 18:58:02;;;;;;;2.95;2.2;;;;;;;19.91;42.9873;95717.36;;;;
2021/12/11 18:59:07;;;;;;;2.95;2.2;;;;;;;19.91;42.9873;95717.36;;;;
2021/12/11 19:00:12;;;;;;;2.95;2.2;;;;;;;19.91;42.9873;95717.36;;;;
2021/12/11 19:01:20;;;;;;;2.4;2.2;;;;;;;19.85;42.9502;95728.91;;;;
2021/12/11 19:02:25;;;;;;;2.4;2.2;;;;;;;19.85;42.9502;95728.91;;;;
2021/12/11 19:03:31;;;;;;;2.4;2.2;;;;;;;19.85;42.9502;95728.91;;;;
2021/12/11 19:04:35;;;;;;;2.4;2.2;;;;;;;19.85;42.9502;95728.91;;;;
2021/12/11 19:05:40;;;;;;;2.4;2.2;;;;;;;19.85;42.9502;95728.91;;;;
2021/12/11 19:06:47;;;;;;;2.4;2.2;;;;;;;19.85;42.9502;95728.91;;;;
2021/12/11 19:07:51;;;;;;;2.4;2.2;;;;;;;19.85;42.9502;95728.91;;;;
2021/12/11 19:08:53;;;;;;;2.4;2.2;;;;;;;19.85;42.9502;95728.91;;;;
2021/12/11 19:09:56;;;;;;;2.4;2.2;;;;;;;19.85;42.9502;95728.91;;;;
2021/12/11 19:10:58;;;;;;;2.4;2.2;;;;;;;19.85;42.9502;95728.91;;;;
2021/12/11 19:12:03;;;;;;;2.4;2.2;;;;;;;19.85;42.9502;95728.91;;;;
2021/12/11 19:13:09;;;;;;;2.5;2.3;;;;;;;19.92;43.01074;95725.84;;;;
2021/12/11 19:14:11;;;;;;;2.5;2.3;;;;;;;19.92;43.01074;95725.84;;;;
2021/12/11 19:15:12;;;;;;;2.5;2.3;;;;;;;19.92;43.01074;95725.84;;;;
2021/12/11 19:16:20;;;;;;;2.5;2.3;;;;;;;19.92;43.01074;95725.84;;;;
2021/12/11 19:17:23;;;;;;;2.5;2.3;;;;;;;19.92;43.01074;95725.84;;;;
2021/12/11 19:18:24;;;;;;;2.5;2.3;;;;;;;19.92;43.01074;95725.84;;;;
2021/12/11 19:19:26;;;;;;;2.5;2.3;;;;;;;19.92;43.01074;95725.84;;;;
2021/12/11 19:20:27;;;;;;;2.5;2.3;;;;;;;19.92;43.01074;95725.84;;;;
2021/12/11 19:21:31;;;;;;;2.5;2.3;;;;;;;19.92;43.01074;95725.84;;;;
2021/12/11 19:22:37;;;;;;;2.5;2.3;;;;;;;19.92;43.01074;95725.84;;;;
2021/12/11 19:23:38;;;;;;;2.4;2.2;;;;;;;19.92;43.19824;95727.21;;;;
2021/12/11 19:24:41;;;;;;;2.4;2.2;;;;;;;19.92;43.19824;95727.21;;;;
2021/12/11 19:25:44;;;;;;;2.4;2.2;;;;;;;19.92;43.19824;95727.21;;;;
2021/12/11 19:26:46;;;;;;;2.4;2.2;;;;;;;19.92;43.19824;95727.21;;;;
2021/12/11 19:27:48;;;;;;;2.4;2.2;;;;;;;19.92;43.19824;95727.21;;;;
2021/12/11 19:28:51;;;;;;;2.4;2.2;;;;;;;19.92;43.19824;95727.21;;;;
2021/12/11 19:29:54;;;;;;;2.4;2.2;;;;;;;19.92;43.19824;95727.21;;;;
2021/12/11 19:30:58;;;;;;;2.4;2.2;;;;;;;19.92;43.19824;95727.21;;;;
2021/12/11 19:32:04;;;;;;;2.4;2.2;;;;;;;19.92;43.19824;95727.21;;;;
2021/12/11 19:33:08;;;;;;;2.4;2.2;;;;;;;19.92;43.19824;95727.21;;;;
2021/12/11 19:34:13;;;;;;;2.55;2.35;;;;;;;19.93;43.02246;95742;;;;
2021/12/11 19:35:14;;;;;;;2.55;2.35;;;;;;;19.93;43.02246;95742;;;;
2021/12/11 19:36:15;;;;;;;2.55;2.35;;;;;;;19.93;43.02246;95742;;;;
2021/12/11 19:37:19;;;;;;;2.55;2.35;;;;;;;19.93;43.02246;95742;;;;
2021/12/11 19:38:19;;;;;;;2.55;2.35;;;;;;;19.93;43.02246;95742;;;;
2021/12/11 19:39:21;;;;;;;3;2.7;;;;;;;20.05;43.07813;95742.5;;;;
2021/12/11 19:40:28;;;;;;;3;2.7;;;;;;;20.05;43.07813;95742.5;;;;
2021/12/11 19:41:32;;;;;;;3;2.7;;;;;;;20.05;43.07813;95742.5;;;;
2021/12/11 19:42:33;;;;;;;3;2.7;;;;;;;20.05;43.07813;95742.5;;;;
2021/12/11 19:43:34;;;;;;;3;2.7;;;;;;;20.05;43.07813;95742.5;;;;
2021/12/11 19:44:35;;;;;;;3;2.7;;;;;;;20.05;43.07813;95742.5;;;;
2021/12/11 19:45:36;;;;;;;3;2.7;;;;;;;20.05;43.07813;95742.5;;;;
2021/12/11 19:46:39;;;;;;;3;2.7;;;;;;;20.05;43.07813;95742.5;;;;
2021/12/11 19:47:40;;;;;;;3;2.7;;;;;;;20.05;43.07813;95742.5;;;;
2021/12/11 19:48:42;;;;;;;3;2.7;;;;;;;20.05;43.07813;95742.5;;;;
2021/12/11 19:49:43;;;;;;;2.6;2.4;;;;;;;19.99;42.86328;95745.95;;;;
2021/12/11 19:50:45;;;;;;;2.6;2.4;;;;;;;19.99;42.86328;95745.95;;;;
2021/12/11 19:51:48;;;;;;;2.6;2.4;;;;;;;19.99;42.86328;95745.95;;;;
2021/12/11 19:52:53;;;;;;;2.6;2.4;;;;;;;19.99;42.86328;95745.95;;;;
2021/12/11 19:53:54;;;;;;;2.6;2.4;;;;;;;19.99;42.86328;95745.95;;;;
2021/12/11 19:54:57;;;;;;;2.6;2.4;;;;;;;19.99;42.86328;95745.95;;;;
2021/12/11 19:55:59;;;;;;;2.6;2.4;;;;;;;19.99;42.86328;95745.95;;;;
2021/12/11 19:57:00;;;;;;;2.6;2.4;;;;;;;19.99;42.86328;95745.95;;;;
2021/12/11 19:58:03;;;;;;;2.6;2.4;;;;;;;19.99;42.86328;95745.95;;;;
2021/12/11 19:59:04;;;;;;;2.6;2.4;;;;;;;19.99;42.86328;95745.95;;;;
2021/12/11 20:00:08;;;;;;;2.6;2.4;;;;;;;19.99;42.86328;95745.95;;;;
2021/12/11 20:01:20;;;;;;;2.9;2.7;;;;;;;19.96;43.00293;95759.4;;;;
2021/12/11 20:02:27;;;;;;;2.9;2.7;;;;;;;19.96;43.00293;95759.4;;;;
2021/12/11 20:03:34;;;;;;;2.9;2.7;;;;;;;19.96;43.00293;95759.4;;;;
2021/12/11 20:04:37;;;;;;;2.9;2.7;;;;;;;19.96;43.00293;95759.4;;;;
2021/12/11 20:05:41;;;;;;;2.9;2.7;;;;;;;19.96;43.00293;95759.4;;;;
2021/12/11 20:06:46;;;;;;;2.9;2.7;;;;;;;19.96;43.00293;95759.4;;;;
2021/12/11 20:07:50;;;;;;;2.9;2.7;;;;;;;19.96;43.00293;95759.4;;;;
2021/12/11 20:08:54;;;;;;;2.9;2.7;;;;;;;19.96;43.00293;95759.4;;;;
2021/12/11 20:09:58;;;;;;;2.9;2.7;;;;;;;19.96;43.00293;95759.4;;;;
2021/12/11 20:11:04;;;;;;;2.9;2.7;;;;;;;19.96;43.00293;95759.4;;;;
2021/12/11 20:12:10;;;;;;;2.6;2.4;;;;;;;19.95;42.96973;95775.02;;;;
2021/12/11 20:13:14;;;;;;;2.6;2.4;;;;;;;19.95;42.96973;95775.02;;;;
2021/12/11 20:14:19;;;;;;;2.6;2.4;;;;;;;19.95;42.96973;95775.02;;;;
2021/12/11 20:15:20;;;;;;;2.6;2.4;;;;;;;19.95;42.96973;95775.02;;;;
2021/12/11 20:16:21;;;;;;;2.6;2.4;;;;;;;19.95;42.96973;95775.02;;;;
2021/12/11 20:17:26;;;;;;;2.6;2.4;;;;;;;19.95;42.96973;95775.02;;;;
2021/12/11 20:18:31;;;;;;;2.6;2.4;;;;;;;19.95;42.96973;95775.02;;;;
2021/12/11 20:19:36;;;;;;;2.6;2.4;;;;;;;19.95;42.96973;95775.02;;;;
2021/12/11 20:20:42;;;;;;;2.6;2.4;;;;;;;19.95;42.96973;95775.02;;;;
2021/12/11 20:21:44;;;;;;;2.6;2.4;;;;;;;19.95;42.96973;95775.02;;;;
2021/12/11 20:22:49;;;;;;;2.5;2.3;;;;;;;19.89;42.9082;95797.27;;;;
2021/12/11 20:23:53;;;;;;;2.5;2.3;;;;;;;19.89;42.9082;95797.27;;;;
2021/12/11 20:24:54;;;;;;;2.5;2.3;;;;;;;19.89;42.9082;95797.27;;;;
2021/12/11 20:25:58;;;;;;;2.5;2.3;;;;;;;19.89;42.9082;95797.27;;;;
2021/12/11 20:26:59;;;;;;;2.5;2.3;;;;;;;19.89;42.9082;95797.27;;;;
2021/12/11 20:28:01;;;;;;;2.5;2.3;;;;;;;19.89;42.9082;95797.27;;;;
2021/12/11 20:29:05;;;;;;;2.5;2.3;;;;;;;19.89;42.9082;95797.27;;;;
2021/12/11 20:30:09;;;;;;;2.5;2.3;;;;;;;19.89;42.9082;95797.27;;;;
2021/12/11 20:31:14;;;;;;;2.5;2.3;;;;;;;19.89;42.9082;95797.27;;;;
2021/12/11 20:32:20;;;;;;;2.5;2.3;;;;;;;19.89;42.9082;95797.27;;;;
2021/12/11 20:33:22;;;;;;;2.5;2.3;;;;;;;19.89;42.9082;95797.27;;;;
2021/12/11 20:34:23;;;;;;;2.7;2.5;;;;;;;19.9;42.94238;95807.12;;;;
2021/12/11 20:35:24;;;;;;;2.7;2.5;;;;;;;19.9;42.94238;95807.12;;;;
2021/12/11 20:36:26;;;;;;;2.7;2.5;;;;;;;19.9;42.94238;95807.12;;;;
2021/12/11 20:37:27;;;;;;;2.7;2.5;;;;;;;19.9;42.94238;95807.12;;;;
2021/12/11 20:38:30;;;;;;;2.7;2.5;;;;;;;19.9;42.94238;95807.12;;;;
2021/12/11 20:39:32;;;;;;;2.7;2.5;;;;;;;19.9;42.94238;95807.12;;;;
2021/12/11 20:40:33;;;;;;;2.7;2.5;;;;;;;19.9;42.94238;95807.12;;;;
2021/12/11 20:41:42;;;;;;;2.7;2.5;;;;;;;19.9;42.94238;95807.12;;;;
2021/12/11 20:42:47;;;;;;;2.7;2.5;;;;;;;19.9;42.94238;95807.12;;;;
2021/12/11 20:43:48;;;;;;;2.7;2.5;;;;;;;19.9;42.94238;95807.12;;;;
2021/12/11 20:44:50;;;;;;;2.4;2.2;;;;;;;19.88;42.97266;95821.68;;;;
2021/12/11 20:45:56;;;;;;;2.4;2.2;;;;;;;19.88;42.97266;95821.68;;;;
2021/12/11 20:46:59;;;;;;;2.4;2.2;;;;;;;19.88;42.97266;95821.68;;;;
2021/12/11 20:48:02;;;;;;;2.4;2.2;;;;;;;19.88;42.97266;95821.68;;;;
2021/12/11 20:49:04;;;;;;;2.4;2.2;;;;;;;19.88;42.97266;95821.68;;;;
2021/12/11 20:50:06;;;;;;;2.4;2.2;;;;;;;19.88;42.97266;95821.68;;;;
2021/12/11 20:51:12;;;;;;;2.4;2.2;;;;;;;19.88;42.97266;95821.68;;;;
2021/12/11 20:52:17;;;;;;;2.4;2.2;;;;;;;19.88;42.97266;95821.68;;;;
2021/12/11 20:53:20;;;;;;;2.4;2.2;;;;;;;19.88;42.97266;95821.68;;;;
2021/12/11 20:54:24;;;;;;;2.4;2.2;;;;;;;19.88;42.97266;95821.68;;;;
2021/12/11 20:55:29;;;;;;;2.65;2.45;;;;;;;19.8;43.04395;95827.6;;;;
2021/12/11 20:56:34;;;;;;;2.65;2.45;;;;;;;19.8;43.04395;95827.6;;;;
2021/12/11 20:57:35;;;;;;;2.65;2.45;;;;;;;19.8;43.04395;95827.6;;;;
2021/12/11 20:58:37;;;;;;;2.65;2.45;;;;;;;19.8;43.04395;95827.6;;;;
2021/12/11 20:59:38;;;;;;;2.65;2.45;;;;;;;19.8;43.04395;95827.6;;;;
2021/12/11 21:00:39;;;;;;;2.65;2.45;;;;;;;19.8;43.04395;95827.6;;;;
2021/12/11 21:01:45;;;;;;;2.65;2.45;;;;;;;19.8;43.04395;95827.6;;;;
2021/12/11 21:02:49;;;;;;;2.65;2.45;;;;;;;19.8;43.04395;95827.6;;;;
2021/12/11 21:03:52;;;;;;;2.65;2.45;;;;;;;19.8;43.04395;95827.6;;;;
2021/12/11 21:04:59;;;;;;;2.65;2.45;;;;;;;19.8;43.04395;95827.6;;;;
2021/12/11 21:06:05;;;;;;;2.65;2.45;;;;;;;19.8;43.04395;95827.6;;;;
2021/12/11 21:07:11;;;;;;;2.75;2.55;;;;;;;19.67;42.90918;95843.27;;;;
2021/12/11 21:08:16;;;;;;;2.75;2.55;;;;;;;19.67;42.90918;95843.27;;;;
2021/12/11 21:09:17;;;;;;;2.75;2.55;;;;;;;19.67;42.90918;95843.27;;;;
2021/12/11 21:10:24;;;;;;;2.75;2.55;;;;;;;19.67;42.90918;95843.27;;;;
2021/12/11 21:11:29;;;;;;;2.75;2.55;;;;;;;19.67;42.90918;95843.27;;;;
2021/12/11 21:12:35;;;;;;;2.75;2.55;;;;;;;19.67;42.90918;95843.27;;;;
2021/12/11 21:13:43;;;;;;;2.75;2.55;;;;;;;19.67;42.90918;95843.27;;;;
2021/12/11 21:14:46;;;;;;;2.75;2.55;;;;;;;19.67;42.90918;95843.27;;;;
2021/12/11 21:15:51;;;;;;;2.75;2.55;;;;;;;19.67;42.90918;95843.27;;;;
2021/12/11 21:16:55;;;;;;;2.75;2.55;;;;;;;19.67;42.90918;95843.27;;;;
2021/12/11 21:18:01;;;;;;;2.7;2.5;;;;;;;19.66;42.79785;95839.85;;;;
2021/12/11 21:19:03;;;;;;;2.7;2.5;;;;;;;19.66;42.79785;95839.85;;;;
2021/12/11 21:20:08;;;;;;;2.8;2.6;;;;;;;19.69;42.83398;95838.33;;;;
2021/12/11 21:21:15;;;;;;;2.8;2.6;;;;;;;19.69;42.83398;95838.33;;;;
2021/12/11 21:22:21;;;;;;;2.8;2.6;;;;;;;19.69;42.83398;95838.33;;;;
2021/12/11 21:23:26;;;;;;;2.8;2.6;;;;;;;19.69;42.83398;95838.33;;;;
2021/12/11 21:24:33;;;;;;;2.8;2.6;;;;;;;19.69;42.83398;95838.33;;;;
2021/12/11 21:25:39;;;;;;;2.8;2.6;;;;;;;19.69;42.83398;95838.33;;;;
2021/12/11 21:26:46;;;;;;;2.8;2.6;;;;;;;19.69;42.83398;95838.33;;;;
2021/12/11 21:27:47;;;;;;;2.8;2.6;;;;;;;19.69;42.83398;95838.33;;;;
2021/12/11 21:28:52;;;;;;;2.8;2.6;;;;;;;19.69;42.83398;95838.33;;;;
2021/12/11 21:29:56;;;;;;;2.8;2.6;;;;;;;19.69;42.83398;95838.33;;;;
2021/12/11 21:30:59;;;;;;;2.45;2.25;;;;;;;19.74;42.53027;95859.27;;;;
2021/12/11 21:32:05;;;;;;;2.45;2.25;;;;;;;19.74;42.53027;95859.27;;;;
2021/12/11 21:33:10;;;;;;;2.45;2.25;;;;;;;19.74;42.53027;95859.27;;;;
2021/12/11 21:34:14;;;;;;;2.45;2.25;;;;;;;19.74;42.53027;95859.27;;;;
2021/12/11 21:35:14;;;;;;;2.45;2.25;;;;;;;19.74;42.53027;95859.27;;;;
2021/12/11 21:36:19;;;;;;;2.45;2.25;;;;;;;19.74;42.53027;95859.27;;;;
2021/12/11 21:37:22;;;;;;;2.45;2.25;;;;;;;19.74;42.53027;95859.27;;;;
2021/12/11 21:38:26;;;;;;;2.45;2.25;;;;;;;19.74;42.53027;95859.27;;;;
2021/12/11 21:39:27;;;;;;;2.45;2.25;;;;;;;19.74;42.53027;95859.27;;;;
2021/12/11 21:40:33;;;;;;;2.45;2.25;;;;;;;19.74;42.53027;95859.27;;;;
2021/12/11 21:41:37;;;;;;;2.85;2.65;;;;;;;19.66;42.73242;95876.84;;;;
2021/12/11 21:42:45;;;;;;;2.85;2.65;;;;;;;19.66;42.73242;95876.84;;;;
2021/12/11 21:43:49;;;;;;;2.85;2.65;;;;;;;19.66;42.73242;95876.84;;;;
2021/12/11 21:44:50;;;;;;;2.85;2.65;;;;;;;19.66;42.73242;95876.84;;;;
2021/12/11 21:45:54;;;;;;;2.85;2.65;;;;;;;19.66;42.73242;95876.84;;;;
2021/12/11 21:46:59;;;;;;;2.85;2.65;;;;;;;19.66;42.73242;95876.84;;;;
2021/12/11 21:48:04;;;;;;;2.85;2.65;;;;;;;19.66;42.73242;95876.84;;;;
2021/12/11 21:49:09;;;;;;;2.85;2.65;;;;;;;19.66;42.73242;95876.84;;;;
2021/12/11 21:50:13;;;;;;;2.85;2.65;;;;;;;19.66;42.73242;95876.84;;;;
2021/12/11 21:51:19;;;;;;;2.85;2.65;;;;;;;19.66;42.73242;95876.84;;;;
2021/12/11 21:52:24;;;;;;;2.85;2.65;;;;;;;19.74;42.89453;95882.15;;;;
2021/12/11 21:53:28;;;;;;;2.85;2.65;;;;;;;19.74;42.89453;95882.15;;;;
2021/12/11 21:54:33;;;;;;;2.85;2.65;;;;;;;19.74;42.89453;95882.15;;;;
2021/12/11 21:55:39;;;;;;;2.85;2.65;;;;;;;19.74;42.89453;95882.15;;;;
2021/12/11 21:56:40;;;;;;;2.85;2.65;;;;;;;19.74;42.89453;95882.15;;;;
2021/12/11 21:57:41;;;;;;;2.85;2.65;;;;;;;19.74;42.89453;95882.15;;;;
2021/12/11 21:58:42;;;;;;;2.85;2.65;;;;;;;19.74;42.89453;95882.15;;;;
2021/12/11 21:59:47;;;;;;;2.85;2.65;;;;;;;19.74;42.89453;95882.15;;;;
2021/12/11 22:00:52;;;;;;;2.85;2.65;;;;;;;19.74;42.89453;95882.15;;;;
2021/12/11 22:01:56;;;;;;;2.85;2.65;;;;;;;19.74;42.89453;95882.15;;;;